sensor_id;sensor_type;location;lat;lon;timestamp;P1;durP1;ratioP1;P2;durP2;ratioP2
54699;SDS011;40599;53.132;6.090;2023-07-20T00:00:23;3.35;;;1.58;;
54699;SDS011;40599;53.132;6.090;2023-07-20T00:02:49;2.10;;;1.48;;
54699;SDS011;40599;53.132;6.090;2023-07-20T00:05:16;2.20;;;1.25;;
54699;SDS011;40599;53.132;6.090;2023-07-20T00:07:43;4.13;;;1.40;;
54699;SDS011;40599;53.132;6.090;2023-07-20T00:10:10;2.97;;;1.50;;
54699;SDS011;40599;53.132;6.090;2023-07-20T00:12:36;2.05;;;1.42;;
54699;SDS011;40599;53.132;6.090;2023-07-20T00:15:02;2.42;;;1.30;;
54699;SDS011;40599;53.132;6.090;2023-07-20T00:17:28;4.00;;;1.63;;
54699;SDS011;40599;53.132;6.090;2023-07-20T00:19:54;3.60;;;1.40;;
54699;SDS011;40599;53.132;6.090;2023-07-20T00:22:21;2.70;;;1.52;;
54699;SDS011;40599;53.132;6.090;2023-07-20T00:24:47;3.20;;;2.17;;
54699;SDS011;40599;53.132;6.090;2023-07-20T00:27:14;5.23;;;1.70;;
54699;SDS011;40599;53.132;6.090;2023-07-20T00:29:40;6.47;;;2.00;;
54699;SDS011;40599;53.132;6.090;2023-07-20T00:32:07;2.00;;;1.50;;
54699;SDS011;40599;53.132;6.090;2023-07-20T00:34:33;2.97;;;1.88;;
54699;SDS011;40599;53.132;6.090;2023-07-20T00:37:00;2.58;;;1.90;;
54699;SDS011;40599;53.132;6.090;2023-07-20T00:39:26;2.97;;;1.50;;
54699;SDS011;40599;53.132;6.090;2023-07-20T00:41:52;2.83;;;2.05;;
54699;SDS011;40599;53.132;6.090;2023-07-20T00:44:18;5.72;;;1.73;;
54699;SDS011;40599;53.132;6.090;2023-07-20T00:46:44;2.83;;;2.03;;
54699;SDS011;40599;53.132;6.090;2023-07-20T00:51:37;3.00;;;1.67;;
54699;SDS011;40599;53.132;6.090;2023-07-20T00:54:03;5.78;;;2.20;;
54699;SDS011;40599;53.132;6.090;2023-07-20T00:56:30;3.17;;;1.80;;
54699;SDS011;40599;53.132;6.090;2023-07-20T00:58:56;6.00;;;1.80;;
54699;SDS011;40599;53.132;6.090;2023-07-20T01:01:22;4.00;;;1.80;;
54699;SDS011;40599;53.132;6.090;2023-07-20T01:03:48;3.92;;;2.05;;
54699;SDS011;40599;53.132;6.090;2023-07-20T01:11:28;3.10;;;2.07;;
54699;SDS011;40599;53.132;6.090;2023-07-20T01:13:57;2.20;;;1.83;;
54699;SDS011;40599;53.132;6.090;2023-07-20T01:16:23;2.20;;;1.80;;
54699;SDS011;40599;53.132;6.090;2023-07-20T01:18:50;2.45;;;1.80;;
54699;SDS011;40599;53.132;6.090;2023-07-20T01:21:24;3.47;;;1.90;;
54699;SDS011;40599;53.132;6.090;2023-07-20T01:23:58;6.17;;;1.93;;
54699;SDS011;40599;53.132;6.090;2023-07-20T01:31:38;2.80;;;2.03;;
54699;SDS011;40599;53.132;6.090;2023-07-20T01:34:06;5.15;;;2.78;;
54699;SDS011;40599;53.132;6.090;2023-07-20T01:36:34;4.50;;;2.50;;
54699;SDS011;40599;53.132;6.090;2023-07-20T01:39:01;3.73;;;2.70;;
54699;SDS011;40599;53.132;6.090;2023-07-20T01:41:29;4.13;;;2.50;;
54699;SDS011;40599;53.132;6.090;2023-07-20T01:43:59;3.53;;;2.30;;
54699;SDS011;40599;53.132;6.090;2023-07-20T01:46:25;3.40;;;2.70;;
54699;SDS011;40599;53.132;6.090;2023-07-20T01:48:52;4.35;;;2.55;;
54699;SDS011;40599;53.132;6.090;2023-07-20T01:51:19;3.92;;;2.58;;
54699;SDS011;40599;53.132;6.090;2023-07-20T01:53:45;5.50;;;2.92;;
54699;SDS011;40599;53.132;6.090;2023-07-20T01:56:11;4.30;;;2.30;;
54699;SDS011;40599;53.132;6.090;2023-07-20T01:58:38;3.03;;;2.35;;
54699;SDS011;40599;53.132;6.090;2023-07-20T02:01:04;6.22;;;2.70;;
54699;SDS011;40599;53.132;6.090;2023-07-20T02:03:30;4.97;;;2.40;;
54699;SDS011;40599;53.132;6.090;2023-07-20T02:05:57;2.88;;;2.03;;
54699;SDS011;40599;53.132;6.090;2023-07-20T02:08:23;5.57;;;2.85;;
54699;SDS011;40599;53.132;6.090;2023-07-20T02:10:49;5.95;;;2.88;;
54699;SDS011;40599;53.132;6.090;2023-07-20T02:13:15;5.70;;;2.55;;
54699;SDS011;40599;53.132;6.090;2023-07-20T02:15:42;3.03;;;2.20;;
54699;SDS011;40599;53.132;6.090;2023-07-20T02:18:08;2.95;;;2.20;;
54699;SDS011;40599;53.132;6.090;2023-07-20T02:20:35;3.20;;;2.35;;
54699;SDS011;40599;53.132;6.090;2023-07-20T02:23:01;5.13;;;2.95;;
54699;SDS011;40599;53.132;6.090;2023-07-20T02:25:27;8.27;;;2.50;;
54699;SDS011;40599;53.132;6.090;2023-07-20T02:27:53;2.90;;;2.10;;
54699;SDS011;40599;53.132;6.090;2023-07-20T02:30:19;3.90;;;2.20;;
54699;SDS011;40599;53.132;6.090;2023-07-20T02:32:45;3.50;;;2.28;;
54699;SDS011;40599;53.132;6.090;2023-07-20T02:35:14;3.95;;;2.42;;
54699;SDS011;40599;53.132;6.090;2023-07-20T02:37:40;4.63;;;2.40;;
54699;SDS011;40599;53.132;6.090;2023-07-20T02:40:06;3.05;;;1.95;;
54699;SDS011;40599;53.132;6.090;2023-07-20T02:42:33;2.40;;;2.05;;
54699;SDS011;40599;53.132;6.090;2023-07-20T02:45:00;3.42;;;2.15;;
54699;SDS011;40599;53.132;6.090;2023-07-20T02:47:26;3.40;;;2.08;;
54699;SDS011;40599;53.132;6.090;2023-07-20T02:49:52;2.78;;;1.90;;
54699;SDS011;40599;53.132;6.090;2023-07-20T02:52:18;4.13;;;2.00;;
54699;SDS011;40599;53.132;6.090;2023-07-20T02:54:44;3.75;;;2.10;;
54699;SDS011;40599;53.132;6.090;2023-07-20T02:57:10;4.53;;;2.60;;
54699;SDS011;40599;53.132;6.090;2023-07-20T02:59:36;3.97;;;2.30;;
54699;SDS011;40599;53.132;6.090;2023-07-20T03:02:03;6.07;;;2.05;;
54699;SDS011;40599;53.132;6.090;2023-07-20T03:04:29;2.28;;;1.77;;
54699;SDS011;40599;53.132;6.090;2023-07-20T03:06:55;3.95;;;2.05;;
54699;SDS011;40599;53.132;6.090;2023-07-20T03:09:21;2.85;;;2.10;;
54699;SDS011;40599;53.132;6.090;2023-07-20T03:11:49;4.38;;;2.13;;
54699;SDS011;40599;53.132;6.090;2023-07-20T03:14:15;3.22;;;2.40;;
54699;SDS011;40599;53.132;6.090;2023-07-20T03:16:41;5.35;;;2.17;;
54699;SDS011;40599;53.132;6.090;2023-07-20T03:19:08;4.22;;;2.38;;
54699;SDS011;40599;53.132;6.090;2023-07-20T03:21:34;4.18;;;2.38;;
54699;SDS011;40599;53.132;6.090;2023-07-20T03:24:00;4.43;;;2.60;;
54699;SDS011;40599;53.132;6.090;2023-07-20T03:26:27;5.38;;;2.55;;
54699;SDS011;40599;53.132;6.090;2023-07-20T03:28:53;3.30;;;2.40;;
54699;SDS011;40599;53.132;6.090;2023-07-20T03:31:19;4.55;;;2.70;;
54699;SDS011;40599;53.132;6.090;2023-07-20T03:33:45;3.22;;;2.60;;
54699;SDS011;40599;53.132;6.090;2023-07-20T03:36:11;3.17;;;2.72;;
54699;SDS011;40599;53.132;6.090;2023-07-20T03:38:37;4.70;;;2.90;;
54699;SDS011;40599;53.132;6.090;2023-07-20T03:41:04;4.30;;;2.63;;
54699;SDS011;40599;53.132;6.090;2023-07-20T03:43:30;3.55;;;2.63;;
54699;SDS011;40599;53.132;6.090;2023-07-20T03:45:56;3.90;;;2.45;;
54699;SDS011;40599;53.132;6.090;2023-07-20T03:48:23;3.30;;;2.70;;
54699;SDS011;40599;53.132;6.090;2023-07-20T03:50:51;3.55;;;3.00;;
54699;SDS011;40599;53.132;6.090;2023-07-20T03:55:46;3.60;;;2.95;;
54699;SDS011;40599;53.132;6.090;2023-07-20T03:58:13;4.15;;;3.00;;
54699;SDS011;40599;53.132;6.090;2023-07-20T04:00:40;4.40;;;3.05;;
54699;SDS011;40599;53.132;6.090;2023-07-20T04:03:06;3.72;;;2.90;;
54699;SDS011;40599;53.132;6.090;2023-07-20T04:05:35;6.05;;;3.03;;
54699;SDS011;40599;53.132;6.090;2023-07-20T04:08:01;4.20;;;3.20;;
54699;SDS011;40599;53.132;6.090;2023-07-20T04:10:27;4.60;;;2.97;;
54699;SDS011;40599;53.132;6.090;2023-07-20T04:12:54;3.85;;;2.88;;
54699;SDS011;40599;53.132;6.090;2023-07-20T04:15:20;5.80;;;2.75;;
54699;SDS011;40599;53.132;6.090;2023-07-20T04:17:46;3.90;;;2.80;;
54699;SDS011;40599;53.132;6.090;2023-07-20T04:20:12;6.00;;;3.90;;
54699;SDS011;40599;53.132;6.090;2023-07-20T04:22:39;5.88;;;3.65;;
54699;SDS011;40599;53.132;6.090;2023-07-20T04:25:05;3.60;;;3.00;;
54699;SDS011;40599;53.132;6.090;2023-07-20T04:27:31;3.78;;;3.15;;
54699;SDS011;40599;53.132;6.090;2023-07-20T04:29:58;6.80;;;3.50;;
54699;SDS011;40599;53.132;6.090;2023-07-20T04:32:28;6.03;;;3.30;;
54699;SDS011;40599;53.132;6.090;2023-07-20T04:37:21;5.03;;;3.10;;
54699;SDS011;40599;53.132;6.090;2023-07-20T04:39:47;9.98;;;3.33;;
54699;SDS011;40599;53.132;6.090;2023-07-20T04:42:13;5.28;;;2.90;;
54699;SDS011;40599;53.132;6.090;2023-07-20T04:44:40;6.03;;;3.60;;
54699;SDS011;40599;53.132;6.090;2023-07-20T04:47:06;8.55;;;3.55;;
54699;SDS011;40599;53.132;6.090;2023-07-20T04:49:33;7.15;;;3.45;;
54699;SDS011;40599;53.132;6.090;2023-07-20T04:52:00;8.13;;;3.70;;
54699;SDS011;40599;53.132;6.090;2023-07-20T04:54:27;6.00;;;3.28;;
54699;SDS011;40599;53.132;6.090;2023-07-20T04:56:53;4.35;;;3.40;;
54699;SDS011;40599;53.132;6.090;2023-07-20T04:59:20;5.38;;;3.22;;
54699;SDS011;40599;53.132;6.090;2023-07-20T05:01:46;6.10;;;3.80;;
54699;SDS011;40599;53.132;6.090;2023-07-20T05:04:12;4.57;;;2.83;;
54699;SDS011;40599;53.132;6.090;2023-07-20T05:06:38;3.72;;;3.05;;
54699;SDS011;40599;53.132;6.090;2023-07-20T05:09:04;5.80;;;4.40;;
54699;SDS011;40599;53.132;6.090;2023-07-20T05:11:31;5.22;;;3.30;;
54699;SDS011;40599;53.132;6.090;2023-07-20T05:13:58;6.35;;;3.38;;
54699;SDS011;40599;53.132;6.090;2023-07-20T05:16:24;5.25;;;3.15;;
54699;SDS011;40599;53.132;6.090;2023-07-20T05:18:50;4.32;;;3.15;;
54699;SDS011;40599;53.132;6.090;2023-07-20T05:21:16;6.30;;;3.40;;
54699;SDS011;40599;53.132;6.090;2023-07-20T05:23:42;6.60;;;3.30;;
54699;SDS011;40599;53.132;6.090;2023-07-20T05:26:09;5.93;;;3.90;;
54699;SDS011;40599;53.132;6.090;2023-07-20T05:28:36;5.15;;;3.35;;
54699;SDS011;40599;53.132;6.090;2023-07-20T05:31:02;6.30;;;3.00;;
54699;SDS011;40599;53.132;6.090;2023-07-20T05:35:55;8.20;;;3.55;;
54699;SDS011;40599;53.132;6.090;2023-07-20T05:38:21;5.38;;;3.33;;
54699;SDS011;40599;53.132;6.090;2023-07-20T05:40:47;5.78;;;3.28;;
54699;SDS011;40599;53.132;6.090;2023-07-20T05:43:13;5.78;;;3.10;;
54699;SDS011;40599;53.132;6.090;2023-07-20T05:45:43;3.60;;;2.80;;
54699;SDS011;40599;53.132;6.090;2023-07-20T05:48:10;8.90;;;2.67;;
54699;SDS011;40599;53.132;6.090;2023-07-20T05:50:37;7.40;;;3.20;;
54699;SDS011;40599;53.132;6.090;2023-07-20T05:53:03;7.85;;;3.10;;
54699;SDS011;40599;53.132;6.090;2023-07-20T05:55:29;3.97;;;2.35;;
54699;SDS011;40599;53.132;6.090;2023-07-20T05:57:55;4.55;;;2.92;;
54699;SDS011;40599;53.132;6.090;2023-07-20T06:00:21;4.20;;;2.75;;
54699;SDS011;40599;53.132;6.090;2023-07-20T06:02:52;4.35;;;2.47;;
54699;SDS011;40599;53.132;6.090;2023-07-20T06:07:45;5.10;;;2.20;;
54699;SDS011;40599;53.132;6.090;2023-07-20T06:10:11;4.47;;;1.90;;
54699;SDS011;40599;53.132;6.090;2023-07-20T06:12:37;8.95;;;2.95;;
54699;SDS011;40599;53.132;6.090;2023-07-20T06:15:04;7.50;;;2.33;;
54699;SDS011;40599;53.132;6.090;2023-07-20T06:17:30;7.45;;;2.50;;
54699;SDS011;40599;53.132;6.090;2023-07-20T06:19:57;5.40;;;2.25;;
54699;SDS011;40599;53.132;6.090;2023-07-20T06:22:23;4.45;;;1.90;;
54699;SDS011;40599;53.132;6.090;2023-07-20T06:24:49;5.82;;;1.80;;
54699;SDS011;40599;53.132;6.090;2023-07-20T06:27:15;9.23;;;1.73;;
54699;SDS011;40599;53.132;6.090;2023-07-20T06:29:41;5.22;;;1.60;;
54699;SDS011;40599;53.132;6.090;2023-07-20T06:32:07;5.00;;;1.77;;
54699;SDS011;40599;53.132;6.090;2023-07-20T06:34:34;7.95;;;1.77;;
54699;SDS011;40599;53.132;6.090;2023-07-20T06:37:03;3.37;;;1.57;;
54699;SDS011;40599;53.132;6.090;2023-07-20T06:42:33;5.40;;;1.63;;
54699;SDS011;40599;53.132;6.090;2023-07-20T06:45:00;4.18;;;1.63;;
54699;SDS011;40599;53.132;6.090;2023-07-20T06:47:26;4.72;;;1.38;;
54699;SDS011;40599;53.132;6.090;2023-07-20T06:49:52;7.45;;;1.30;;
54699;SDS011;40599;53.132;6.090;2023-07-20T06:52:18;4.10;;;2.08;;
54699;SDS011;40599;53.132;6.090;2023-07-20T06:54:45;3.95;;;1.38;;
54699;SDS011;40599;53.132;6.090;2023-07-20T06:57:11;2.40;;;1.30;;
54699;SDS011;40599;53.132;6.090;2023-07-20T06:59:37;7.07;;;1.73;;
54699;SDS011;40599;53.132;6.090;2023-07-20T07:02:03;3.58;;;1.38;;
54699;SDS011;40599;53.132;6.090;2023-07-20T07:04:29;6.85;;;1.80;;
54699;SDS011;40599;53.132;6.090;2023-07-20T07:06:55;6.72;;;1.73;;
54699;SDS011;40599;53.132;6.090;2023-07-20T07:09:22;4.18;;;1.67;;
54699;SDS011;40599;53.132;6.090;2023-07-20T07:11:49;5.37;;;2.00;;
54699;SDS011;40599;53.132;6.090;2023-07-20T07:14:15;3.67;;;1.63;;
54699;SDS011;40599;53.132;6.090;2023-07-20T07:16:41;5.10;;;1.95;;
54699;SDS011;40599;53.132;6.090;2023-07-20T07:19:08;4.28;;;1.80;;
54699;SDS011;40599;53.132;6.090;2023-07-20T07:21:34;4.90;;;1.98;;
54699;SDS011;40599;53.132;6.090;2023-07-20T07:24:00;8.85;;;2.67;;
54699;SDS011;40599;53.132;6.090;2023-07-20T07:26:26;5.53;;;2.30;;
54699;SDS011;40599;53.132;6.090;2023-07-20T07:28:52;9.38;;;2.28;;
54699;SDS011;40599;53.132;6.090;2023-07-20T07:31:18;5.25;;;2.15;;
54699;SDS011;40599;53.132;6.090;2023-07-20T07:33:45;4.63;;;2.03;;
54699;SDS011;40599;53.132;6.090;2023-07-20T07:36:12;5.93;;;1.95;;
54699;SDS011;40599;53.132;6.090;2023-07-20T07:38:38;10.98;;;3.53;;
54699;SDS011;40599;53.132;6.090;2023-07-20T07:41:04;3.63;;;2.00;;
54699;SDS011;40599;53.132;6.090;2023-07-20T07:43:30;3.60;;;1.80;;
54699;SDS011;40599;53.132;6.090;2023-07-20T07:45:56;4.20;;;1.92;;
54699;SDS011;40599;53.132;6.090;2023-07-20T07:48:22;5.13;;;2.25;;
54699;SDS011;40599;53.132;6.090;2023-07-20T07:50:50;5.23;;;2.20;;
54699;SDS011;40599;53.132;6.090;2023-07-20T07:53:16;4.97;;;2.20;;
54699;SDS011;40599;53.132;6.090;2023-07-20T07:55:43;4.68;;;1.83;;
54699;SDS011;40599;53.132;6.090;2023-07-20T07:58:09;6.82;;;2.30;;
54699;SDS011;40599;53.132;6.090;2023-07-20T08:00:35;4.60;;;1.80;;
54699;SDS011;40599;53.132;6.090;2023-07-20T08:03:01;8.85;;;2.33;;
54699;SDS011;40599;53.132;6.090;2023-07-20T08:05:28;6.60;;;2.25;;
54699;SDS011;40599;53.132;6.090;2023-07-20T08:07:54;5.03;;;2.30;;
54699;SDS011;40599;53.132;6.090;2023-07-20T08:10:21;5.22;;;1.95;;
54699;SDS011;40599;53.132;6.090;2023-07-20T08:12:48;5.13;;;1.73;;
54699;SDS011;40599;53.132;6.090;2023-07-20T08:15:14;5.82;;;2.08;;
54699;SDS011;40599;53.132;6.090;2023-07-20T08:17:41;3.30;;;1.75;;
54699;SDS011;40599;53.132;6.090;2023-07-20T08:20:08;6.50;;;2.10;;
54699;SDS011;40599;53.132;6.090;2023-07-20T08:22:37;4.90;;;1.90;;
54699;SDS011;40599;53.132;6.090;2023-07-20T08:25:05;6.60;;;2.23;;
54699;SDS011;40599;53.132;6.090;2023-07-20T08:27:31;5.23;;;2.20;;
54699;SDS011;40599;53.132;6.090;2023-07-20T08:29:57;9.18;;;2.13;;
54699;SDS011;40599;53.132;6.090;2023-07-20T08:32:23;5.78;;;2.03;;
54699;SDS011;40599;53.132;6.090;2023-07-20T08:34:49;5.93;;;2.97;;
54699;SDS011;40599;53.132;6.090;2023-07-20T08:37:16;5.75;;;1.50;;
54699;SDS011;40599;53.132;6.090;2023-07-20T08:39:42;3.90;;;1.70;;
54699;SDS011;40599;53.132;6.090;2023-07-20T08:42:08;3.97;;;1.73;;
54699;SDS011;40599;53.132;6.090;2023-07-20T08:44:36;8.70;;;2.17;;
54699;SDS011;40599;53.132;6.090;2023-07-20T08:47:03;3.97;;;1.67;;
54699;SDS011;40599;53.132;6.090;2023-07-20T08:49:33;5.63;;;1.33;;
54699;SDS011;40599;53.132;6.090;2023-07-20T08:51:59;5.30;;;1.30;;
54699;SDS011;40599;53.132;6.090;2023-07-20T08:54:32;5.53;;;1.40;;
54699;SDS011;40599;53.132;6.090;2023-07-20T08:57:02;7.70;;;1.63;;
54699;SDS011;40599;53.132;6.090;2023-07-20T08:59:29;3.50;;;1.50;;
54699;SDS011;40599;53.132;6.090;2023-07-20T09:04:22;7.73;;;1.63;;
54699;SDS011;40599;53.132;6.090;2023-07-20T09:06:48;4.35;;;1.30;;
54699;SDS011;40599;53.132;6.090;2023-07-20T09:09:15;3.97;;;1.10;;
54699;SDS011;40599;53.132;6.090;2023-07-20T09:11:41;5.65;;;1.40;;
54699;SDS011;40599;53.132;6.090;2023-07-20T09:14:07;3.45;;;1.30;;
54699;SDS011;40599;53.132;6.090;2023-07-20T09:16:46;5.70;;;1.37;;
54699;SDS011;40599;53.132;6.090;2023-07-20T09:19:14;4.13;;;1.63;;
54699;SDS011;40599;53.132;6.090;2023-07-20T09:21:51;3.57;;;1.20;;
54699;SDS011;40599;53.132;6.090;2023-07-20T09:24:18;3.08;;;1.50;;
54699;SDS011;40599;53.132;6.090;2023-07-20T09:26:45;4.97;;;1.30;;
54699;SDS011;40599;53.132;6.090;2023-07-20T09:29:13;4.60;;;1.40;;
54699;SDS011;40599;53.132;6.090;2023-07-20T09:31:39;3.25;;;1.10;;
54699;SDS011;40599;53.132;6.090;2023-07-20T09:34:06;8.98;;;1.30;;
54699;SDS011;40599;53.132;6.090;2023-07-20T09:36:33;3.05;;;1.17;;
54699;SDS011;40599;53.132;6.090;2023-07-20T09:39:00;3.13;;;1.20;;
54699;SDS011;40599;53.132;6.090;2023-07-20T09:41:26;6.38;;;1.52;;
54699;SDS011;40599;53.132;6.090;2023-07-20T09:43:52;4.00;;;1.40;;
54699;SDS011;40599;53.132;6.090;2023-07-20T09:46:19;3.45;;;1.13;;
54699;SDS011;40599;53.132;6.090;2023-07-20T09:48:51;3.85;;;1.30;;
54699;SDS011;40599;53.132;6.090;2023-07-20T09:51:23;3.10;;;1.30;;
54699;SDS011;40599;53.132;6.090;2023-07-20T09:53:51;4.50;;;1.23;;
54699;SDS011;40599;53.132;6.090;2023-07-20T09:56:21;7.03;;;1.37;;
54699;SDS011;40599;53.132;6.090;2023-07-20T09:58:48;3.17;;;1.20;;
54699;SDS011;40599;53.132;6.090;2023-07-20T10:01:16;7.50;;;1.50;;
54699;SDS011;40599;53.132;6.090;2023-07-20T10:03:43;4.43;;;1.43;;
54699;SDS011;40599;53.132;6.090;2023-07-20T10:06:12;5.00;;;1.50;;
54699;SDS011;40599;53.132;6.090;2023-07-20T10:08:41;5.07;;;1.23;;
54699;SDS011;40599;53.132;6.090;2023-07-20T10:11:08;4.90;;;1.77;;
54699;SDS011;40599;53.132;6.090;2023-07-20T10:13:37;4.97;;;1.60;;
54699;SDS011;40599;53.132;6.090;2023-07-20T10:16:07;6.30;;;1.60;;
54699;SDS011;40599;53.132;6.090;2023-07-20T10:21:17;3.80;;;1.20;;
54699;SDS011;40599;53.132;6.090;2023-07-20T10:23:44;5.63;;;1.70;;
54699;SDS011;40599;53.132;6.090;2023-07-20T10:28:37;4.17;;;1.50;;
54699;SDS011;40599;53.132;6.090;2023-07-20T10:31:05;5.37;;;1.73;;
54699;SDS011;40599;53.132;6.090;2023-07-20T10:33:32;4.87;;;1.70;;
54699;SDS011;40599;53.132;6.090;2023-07-20T10:36:03;3.20;;;1.35;;
54699;SDS011;40599;53.132;6.090;2023-07-20T10:41:21;5.03;;;1.43;;
54699;SDS011;40599;53.132;6.090;2023-07-20T10:43:49;3.27;;;1.40;;
54699;SDS011;40599;53.132;6.090;2023-07-20T10:49:07;2.80;;;1.30;;
54699;SDS011;40599;53.132;6.090;2023-07-20T10:51:46;4.73;;;1.30;;
54699;SDS011;40599;53.132;6.090;2023-07-20T10:56:43;5.60;;;1.57;;
54699;SDS011;40599;53.132;6.090;2023-07-20T10:59:19;5.33;;;1.80;;
54699;SDS011;40599;53.132;6.090;2023-07-20T11:01:46;3.23;;;1.40;;
54699;SDS011;40599;53.132;6.090;2023-07-20T11:04:16;5.33;;;1.50;;
54699;SDS011;40599;53.132;6.090;2023-07-20T11:06:44;4.73;;;1.50;;
54699;SDS011;40599;53.132;6.090;2023-07-20T11:09:11;5.87;;;1.47;;
54699;SDS011;40599;53.132;6.090;2023-07-20T11:11:44;4.97;;;1.57;;
54699;SDS011;40599;53.132;6.090;2023-07-20T11:14:20;3.03;;;1.60;;
54699;SDS011;40599;53.132;6.090;2023-07-20T11:16:47;5.27;;;1.50;;
54699;SDS011;40599;53.132;6.090;2023-07-20T11:19:14;3.70;;;1.50;;
54699;SDS011;40599;53.132;6.090;2023-07-20T11:21:44;5.47;;;1.67;;
54699;SDS011;40599;53.132;6.090;2023-07-20T11:24:10;2.67;;;1.50;;
54699;SDS011;40599;53.132;6.090;2023-07-20T11:26:54;3.27;;;1.40;;
54699;SDS011;40599;53.132;6.090;2023-07-20T11:29:21;5.10;;;1.50;;
54699;SDS011;40599;53.132;6.090;2023-07-20T11:31:48;3.03;;;1.47;;
54699;SDS011;40599;53.132;6.090;2023-07-20T11:34:20;4.67;;;1.53;;
54699;SDS011;40599;53.132;6.090;2023-07-20T11:36:47;3.80;;;1.50;;
54699;SDS011;40599;53.132;6.090;2023-07-20T11:39:14;4.20;;;1.40;;
54699;SDS011;40599;53.132;6.090;2023-07-20T11:41:44;5.83;;;1.80;;
54699;SDS011;40599;53.132;6.090;2023-07-20T11:44:12;6.40;;;1.57;;
54699;SDS011;40599;53.132;6.090;2023-07-20T11:46:42;6.55;;;1.58;;
54699;SDS011;40599;53.132;6.090;2023-07-20T11:49:09;2.67;;;1.70;;
54699;SDS011;40599;53.132;6.090;2023-07-20T11:51:35;5.63;;;1.40;;
54699;SDS011;40599;53.132;6.090;2023-07-20T11:54:03;5.27;;;1.77;;
54699;SDS011;40599;53.132;6.090;2023-07-20T11:56:29;5.93;;;1.83;;
54699;SDS011;40599;53.132;6.090;2023-07-20T11:58:57;6.65;;;1.50;;
54699;SDS011;40599;53.132;6.090;2023-07-20T12:01:25;3.37;;;1.50;;
54699;SDS011;40599;53.132;6.090;2023-07-20T12:03:57;4.50;;;1.73;;
54699;SDS011;40599;53.132;6.090;2023-07-20T12:06:24;5.57;;;1.80;;
54699;SDS011;40599;53.132;6.090;2023-07-20T12:11:30;5.07;;;2.33;;
54699;SDS011;40599;53.132;6.090;2023-07-20T12:13:57;3.83;;;1.60;;
54699;SDS011;40599;53.132;6.090;2023-07-20T12:16:26;4.43;;;1.60;;
54699;SDS011;40599;53.132;6.090;2023-07-20T12:18:58;6.90;;;1.93;;
54699;SDS011;40599;53.132;6.090;2023-07-20T12:21:25;3.93;;;1.73;;
54699;SDS011;40599;53.132;6.090;2023-07-20T12:23:51;3.70;;;1.50;;
54699;SDS011;40599;53.132;6.090;2023-07-20T12:26:17;2.70;;;1.50;;
54699;SDS011;40599;53.132;6.090;2023-07-20T12:28:45;9.53;;;2.03;;
54699;SDS011;40599;53.132;6.090;2023-07-20T12:31:11;5.05;;;1.90;;
54699;SDS011;40599;53.132;6.090;2023-07-20T12:33:38;3.63;;;1.60;;
54699;SDS011;40599;53.132;6.090;2023-07-20T12:36:04;4.25;;;1.85;;
54699;SDS011;40599;53.132;6.090;2023-07-20T12:38:31;13.45;;;2.42;;
54699;SDS011;40599;53.132;6.090;2023-07-20T12:40:57;5.07;;;1.85;;
54699;SDS011;40599;53.132;6.090;2023-07-20T12:43:25;4.00;;;1.80;;
54699;SDS011;40599;53.132;6.090;2023-07-20T12:45:51;7.13;;;1.75;;
54699;SDS011;40599;53.132;6.090;2023-07-20T12:50:43;5.57;;;2.07;;
54699;SDS011;40599;53.132;6.090;2023-07-20T12:53:10;3.95;;;1.40;;
54699;SDS011;40599;53.132;6.090;2023-07-20T12:55:37;3.47;;;1.58;;
54699;SDS011;40599;53.132;6.090;2023-07-20T12:58:03;4.03;;;1.73;;
54699;SDS011;40599;53.132;6.090;2023-07-20T13:02:57;6.27;;;1.70;;
54699;SDS011;40599;53.132;6.090;2023-07-20T13:05:23;3.03;;;1.67;;
54699;SDS011;40599;53.132;6.090;2023-07-20T13:07:49;5.95;;;1.58;;
54699;SDS011;40599;53.132;6.090;2023-07-20T13:10:15;3.83;;;1.50;;
54699;SDS011;40599;53.132;6.090;2023-07-20T13:12:42;4.03;;;1.73;;
54699;SDS011;40599;53.132;6.090;2023-07-20T13:15:09;2.75;;;1.50;;
54699;SDS011;40599;53.132;6.090;2023-07-20T13:17:36;2.90;;;1.60;;
54699;SDS011;40599;53.132;6.090;2023-07-20T13:20:04;3.03;;;1.77;;
54699;SDS011;40599;53.132;6.090;2023-07-20T13:22:31;4.33;;;1.97;;
54699;SDS011;40599;53.132;6.090;2023-07-20T13:24:58;2.30;;;1.37;;
54699;SDS011;40599;53.132;6.090;2023-07-20T13:27:24;9.93;;;1.70;;
54699;SDS011;40599;53.132;6.090;2023-07-20T13:29:53;2.57;;;1.20;;
54699;SDS011;40599;53.132;6.090;2023-07-20T13:32:19;2.70;;;1.23;;
54699;SDS011;40599;53.132;6.090;2023-07-20T13:34:45;5.25;;;1.60;;
54699;SDS011;40599;53.132;6.090;2023-07-20T13:37:13;5.43;;;1.80;;
54699;SDS011;40599;53.132;6.090;2023-07-20T13:39:39;7.00;;;1.50;;
54699;SDS011;40599;53.132;6.090;2023-07-20T13:42:05;3.42;;;1.30;;
54699;SDS011;40599;53.132;6.090;2023-07-20T13:44:32;3.22;;;1.30;;
54699;SDS011;40599;53.132;6.090;2023-07-20T13:49:24;3.50;;;1.20;;
54699;SDS011;40599;53.132;6.090;2023-07-20T13:51:50;2.67;;;1.40;;
54699;SDS011;40599;53.132;6.090;2023-07-20T13:54:17;4.63;;;1.40;;
54699;SDS011;40599;53.132;6.090;2023-07-20T13:56:43;3.22;;;1.73;;
54699;SDS011;40599;53.132;6.090;2023-07-20T13:59:09;2.63;;;1.25;;
54699;SDS011;40599;53.132;6.090;2023-07-20T14:01:35;3.13;;;1.45;;
54699;SDS011;40599;53.132;6.090;2023-07-20T14:04:01;3.58;;;1.45;;
54699;SDS011;40599;53.132;6.090;2023-07-20T14:06:32;2.07;;;1.00;;
54699;SDS011;40599;53.132;6.090;2023-07-20T14:08:58;3.53;;;1.50;;
54699;SDS011;40599;53.132;6.090;2023-07-20T14:11:25;2.60;;;1.33;;
54699;SDS011;40599;53.132;6.090;2023-07-20T14:13:52;3.88;;;1.15;;
54699;SDS011;40599;53.132;6.090;2023-07-20T14:16:19;4.23;;;1.30;;
54699;SDS011;40599;53.132;6.090;2023-07-20T14:18:45;4.60;;;1.37;;
54699;SDS011;40599;53.132;6.090;2023-07-20T14:21:12;2.40;;;1.10;;
54699;SDS011;40599;53.132;6.090;2023-07-20T14:26:04;4.63;;;1.50;;
54699;SDS011;40599;53.132;6.090;2023-07-20T14:28:32;4.50;;;1.80;;
54699;SDS011;40599;53.132;6.090;2023-07-20T14:30:58;2.38;;;1.30;;
54699;SDS011;40599;53.132;6.090;2023-07-20T14:33:32;3.33;;;1.40;;
54699;SDS011;40599;53.132;6.090;2023-07-20T14:35:58;4.57;;;1.53;;
54699;SDS011;40599;53.132;6.090;2023-07-20T14:38:26;3.43;;;1.33;;
54699;SDS011;40599;53.132;6.090;2023-07-20T14:43:18;2.87;;;1.60;;
54699;SDS011;40599;53.132;6.090;2023-07-20T14:45:45;2.50;;;1.27;;
54699;SDS011;40599;53.132;6.090;2023-07-20T14:48:11;5.95;;;1.75;;
54699;SDS011;40599;53.132;6.090;2023-07-20T14:50:37;4.80;;;1.55;;
54699;SDS011;40599;53.132;6.090;2023-07-20T14:55:29;3.47;;;1.20;;
54699;SDS011;40599;53.132;6.090;2023-07-20T14:57:56;4.55;;;1.42;;
54699;SDS011;40599;53.132;6.090;2023-07-20T15:00:22;4.55;;;1.50;;
54699;SDS011;40599;53.132;6.090;2023-07-20T15:02:48;2.65;;;1.27;;
54699;SDS011;40599;53.132;6.090;2023-07-20T15:05:24;3.47;;;1.30;;
54699;SDS011;40599;53.132;6.090;2023-07-20T15:07:51;5.00;;;1.47;;
54699;SDS011;40599;53.132;6.090;2023-07-20T15:10:18;3.27;;;1.30;;
54699;SDS011;40599;53.132;6.090;2023-07-20T15:15:14;1.57;;;0.93;;
54699;SDS011;40599;53.132;6.090;2023-07-20T15:17:41;6.03;;;2.10;;
54699;SDS011;40599;53.132;6.090;2023-07-20T15:20:09;9.57;;;3.57;;
54699;SDS011;40599;53.132;6.090;2023-07-20T15:22:35;3.83;;;1.30;;
54699;SDS011;40599;53.132;6.090;2023-07-20T15:25:02;2.70;;;1.60;;
54699;SDS011;40599;53.132;6.090;2023-07-20T15:27:29;4.00;;;1.40;;
54699;SDS011;40599;53.132;6.090;2023-07-20T15:29:56;3.83;;;1.40;;
54699;SDS011;40599;53.132;6.090;2023-07-20T15:32:22;3.83;;;1.55;;
54699;SDS011;40599;53.132;6.090;2023-07-20T15:34:48;3.88;;;1.67;;
54699;SDS011;40599;53.132;6.090;2023-07-20T15:37:14;3.67;;;1.65;;
54699;SDS011;40599;53.132;6.090;2023-07-20T15:39:41;2.60;;;1.30;;
54699;SDS011;40599;53.132;6.090;2023-07-20T15:42:07;4.72;;;2.25;;
54699;SDS011;40599;53.132;6.090;2023-07-20T15:44:39;7.45;;;1.63;;
54699;SDS011;40599;53.132;6.090;2023-07-20T15:47:06;3.23;;;1.60;;